Time;durP1;ratioP1;P1;durP2;ratioP2;P2;SDS_P1;SDS_P2;PMS_P1;PMS_P2;Temp;Humidity;BMP_temperature;BMP_pressure;BME280_temperature;BME280_humidity;BME280_pressure;Samples;Min_cycle;Max_cycle;Signal;HPM_P1;HPM_P2
2024/01/11 00:01:58;;;;;;;2.65;1.20;;;;;;;-2.48;63.45;103435.81;5093651;27;97139;-27
2024/01/11 00:04:24;;;;;;;1.45;1.35;;;;;;;-2.45;63.66;103450.94;5093954;27;96829;-27
2024/01/11 00:06:50;;;;;;;0.70;0.70;;;;;;;-2.47;63.50;103452.63;5093435;27;99847;-28
2024/01/11 00:09:15;;;;;;;2.97;1.02;;;;;;;-2.50;63.37;103450.78;5074924;27;100807;-28
2024/01/11 00:11:41;;;;;;;3.88;2.78;;;;;;;-2.51;63.49;103448.97;5093704;27;96502;-28
2024/01/11 00:14:06;;;;;;;2.80;1.27;;;;;;;-2.58;63.33;103447.84;5093797;27;96867;-27
2024/01/11 00:16:32;;;;;;;0.00;0.00;;;;;;;-2.65;63.54;103435.22;5093151;27;97879;-28
2024/01/11 00:18:57;;;;;;;0.55;0.55;;;;;;;-2.58;63.37;103447.84;5093229;27;99548;-27
2024/01/11 00:21:22;;;;;;;1.85;0.90;;;;;;;-2.56;63.57;103448.78;5093602;27;96572;-27
2024/01/11 00:23:49;;;;;;;0.55;0.38;;;;;;;-2.57;63.55;103452.31;5093556;27;96841;-28
2024/01/11 00:26:14;;;;;;;0.57;0.50;;;;;;;-2.65;63.55;103439.63;5074742;27;101675;-27
2024/01/11 00:28:39;;;;;;;0.00;0.00;;;;;;;-2.64;63.24;103444.09;5093283;27;97884;-27
2024/01/11 00:31:05;;;;;;;0.77;0.75;;;;;;;-2.65;63.41;103447.56;5093675;27;96548;-27
2024/01/11 00:33:31;;;;;;;1.60;1.50;;;;;;;-2.68;63.55;103437.75;5075212;27;96925;-29
2024/01/11 00:36:03;;;;;;;3.35;2.17;;;;;;;-2.67;63.43;103436.94;5093150;27;98852;-29
2024/01/11 00:38:28;;;;;;;;;;;;;;;-2.62;63.43;103445.94;5074705;27;102499;-27
2024/01/11 00:40:53;;;;;;;1.13;1.05;;;;;;;-2.62;63.59;103448.59;5092755;27;96489;-27
2024/01/11 00:43:18;;;;;;;0.82;0.80;;;;;;;-2.64;63.50;103450.28;5093354;27;96834;-27
2024/01/11 00:45:45;;;;;;;1.17;1.08;;;;;;;-2.67;63.65;103449.28;5093243;27;97424;-27
2024/01/11 00:48:11;;;;;;;1.10;0.85;;;;;;;-2.70;63.83;103446.50;5092857;27;97359;-27
2024/01/11 00:50:37;;;;;;;0.65;0.60;;;;;;;-2.71;63.44;103442.06;5095745;27;96566;-27
2024/01/11 00:53:02;;;;;;;0.25;0.10;;;;;;;-2.65;63.65;103448.47;5096689;27;96864;-29
2024/01/11 00:55:28;;;;;;;2.13;1.35;;;;;;;-2.68;63.43;103436.88;5096491;27;99323;-29
2024/01/11 00:57:54;;;;;;;1.33;0.80;;;;;;;-2.65;63.90;103443.16;5078274;27;100969;-27
2024/01/11 01:00:19;;;;;;;0.60;0.60;;;;;;;-2.64;63.78;103444.09;5096718;27;98390;-27
2024/01/11 01:02:44;;;;;;;0.17;0.17;;;;;;;-2.68;63.62;103445.72;5095986;27;96832;-27
2024/01/11 01:05:10;;;;;;;0.60;0.60;;;;;;;-2.67;63.60;103436.00;5096234;27;97893;-27
2024/01/11 01:07:35;;;;;;;0.63;0.63;;;;;;;-2.65;63.50;103444.91;5096172;27;97276;-27
2024/01/11 01:10:01;;;;;;;0.40;0.40;;;;;;;-2.66;63.43;103437.81;5096707;27;96579;-27
2024/01/11 01:12:28;;;;;;;0.77;0.77;;;;;;;-2.71;63.46;103442.06;5078084;27;96922;-27
2024/01/11 01:14:54;;;;;;;1.33;1.23;;;;;;;-2.67;63.95;103450.19;5077753;27;100114;-27
2024/01/11 01:17:19;;;;;;;0.52;0.52;;;;;;;-2.68;63.96;103443.06;5096083;27;98729;-28
2024/01/11 01:19:45;;;;;;;0.75;0.50;;;;;;;-2.71;64.10;103458.00;5096232;27;96621;-27
2024/01/11 01:22:10;;;;;;;2.40;0.90;;;;;;;-2.73;64.48;103449.06;5096603;27;96911;-27
2024/01/11 01:24:36;;;;;;;3.20;1.45;;;;;;;-2.73;64.42;103457.94;5096373;27;97686;-28
2024/01/11 01:27:01;;;;;;;1.35;0.40;;;;;;;-2.73;64.79;103465.88;5112050;27;101185;-27
2024/01/11 01:29:27;;;;;;;0.15;0.15;;;;;;;-2.70;64.76;103460.66;5095915;27;96541;-28
2024/01/11 01:31:52;;;;;;;0.52;0.52;;;;;;;-2.71;64.65;103453.56;5096260;27;96770;-27
2024/01/11 01:34:18;;;;;;;1.40;1.30;;;;;;;-2.75;64.94;103450.75;5096114;27;98039;-27
2024/01/11 01:36:43;;;;;;;1.65;1.45;;;;;;;-2.76;64.98;103457.81;5095881;27;97510;-27
2024/01/11 01:39:08;;;;;;;2.03;1.33;;;;;;;-2.77;64.65;103461.31;5095923;27;102557;-27
2024/01/11 01:41:34;;;;;;;1.67;1.48;;;;;;;-2.72;64.84;103480.94;5096249;27;97090;-27
2024/01/11 01:43:59;;;;;;;0.50;0.50;;;;;;;-2.72;65.31;103474.72;5095901;27;97938;-28
2024/01/11 01:46:26;;;;;;;0.10;0.10;;;;;;;-2.72;64.80;103480.94;5096253;27;98001;-28
2024/01/11 01:48:56;;;;;;;3.78;0.88;;;;;;;-2.77;65.16;103475.47;5111832;27;96648;-27
2024/01/11 01:51:23;;;;;;;0.00;0.00;;;;;;;-2.78;65.14;103478.06;5077068;27;96854;-27
2024/01/11 01:53:52;;;;;;;0.70;0.65;;;;;;;-2.78;65.12;103486.94;5076569;27;100919;-27
2024/01/11 01:56:19;;;;;;;1.63;1.25;;;;;;;-2.86;65.43;103472.50;5076929;27;101186;-28
2024/01/11 01:58:44;;;;;;;0.40;0.40;;;;;;;-2.79;65.46;103486.88;5095727;27;96733;-28
2024/01/11 02:01:10;;;;;;;1.63;1.17;;;;;;;-2.80;65.88;103488.63;5076486;27;96773;-29
2024/01/11 02:03:36;;;;;;;0.47;0.47;;;;;;;-2.88;65.40;103481.25;5076926;27;101011;-28
2024/01/11 02:06:04;;;;;;;1.20;1.05;;;;;;;-2.84;65.01;103497.31;5076530;27;101207;-27
2024/01/11 02:08:31;;;;;;;0.17;0.17;;;;;;;-2.93;65.64;103486.38;5111370;27;96681;-27
2024/01/11 02:10:59;;;;;;;1.08;0.98;;;;;;;-2.93;65.15;103477.50;5111862;27;96918;-28
2024/01/11 02:13:24;;;;;;;1.08;1.00;;;;;;;-2.91;65.71;103478.47;5095402;27;98158;-27
2024/01/11 02:15:50;;;;;;;1.13;0.55;;;;;;;-2.92;65.87;103484.63;5095491;27;97346;-28
2024/01/11 02:18:15;;;;;;;0.55;0.55;;;;;;;-2.93;65.55;103490.75;5094909;27;96462;-28
2024/01/11 02:20:40;;;;;;;3.15;1.05;;;;;;;-2.87;65.53;103497.19;5095428;27;96845;-28
2024/01/11 02:23:10;;;;;;;0.52;0.52;;;;;;;-2.93;65.99;103483.72;5095207;27;99514;-27
2024/01/11 02:25:35;;;;;;;0.82;0.70;;;;;;;-2.93;65.81;103480.16;5076440;27;100732;-28
2024/01/11 02:28:00;;;;;;;0.40;0.40;;;;;;;-2.97;65.80;103492.41;5095123;27;96590;-27
2024/01/11 02:30:26;;;;;;;2.90;2.42;;;;;;;-2.99;66.46;103500.28;5095128;27;96832;-27
2024/01/11 02:32:51;;;;;;;0.10;0.10;;;;;;;-2.95;66.55;103495.13;5095582;27;97405;-28
2024/01/11 02:35:18;;;;;;;1.70;1.42;;;;;;;-2.97;66.35;103499.47;5095290;27;99117;-28
2024/01/11 02:37:45;;;;;;;0.63;0.45;;;;;;;-3.03;66.60;103494.81;5111191;27;96558;-28
2024/01/11 02:40:12;;;;;;;1.48;1.38;;;;;;;-3.03;66.53;103494.81;5095064;27;96806;-28
2024/01/11 02:42:38;;;;;;;1.70;0.82;;;;;;;-3.01;66.73;103494.03;5075897;27;100764;-27
2024/01/11 02:45:04;;;;;;;0.50;0.50;;;;;;;-3.05;66.99;103481.53;5094967;27;97757;-27
2024/01/11 02:47:29;;;;;;;0.28;0.28;;;;;;;-3.03;66.52;103484.22;5075777;27;96693;-28
2024/01/11 02:49:55;;;;;;;1.35;1.17;;;;;;;-3.03;66.73;103490.44;5095068;27;96518;-27
2024/01/11 02:52:22;;;;;;;3.30;1.83;;;;;;;-3.00;66.71;103492.31;5075990;27;100926;-28
2024/01/11 02:54:48;;;;;;;0.38;0.35;;;;;;;-3.02;67.12;103494.88;5110874;27;100890;-27
2024/01/11 02:57:13;;;;;;;1.25;0.90;;;;;;;-2.97;66.60;103504.78;5094917;27;96475;-27
2024/01/11 02:59:40;;;;;;;0.20;0.20;;;;;;;-3.00;66.76;103495.84;5095122;27;96960;-28
2024/01/11 03:02:05;;;;;;;0.40;0.35;;;;;;;-2.93;66.86;103509.31;5075369;27;101109;-27
2024/01/11 03:04:31;;;;;;;0.75;0.75;;;;;;;-2.95;66.95;103501.34;5094609;27;98657;-27
2024/01/11 03:06:56;;;;;;;1.13;0.70;;;;;;;-2.97;66.69;103508.31;5094391;27;96441;-27
2024/01/11 03:09:21;;;;;;;0.80;0.77;;;;;;;-3.07;66.68;103498.22;5094772;27;96941;-27
2024/01/11 03:11:47;;;;;;;0.22;0.22;;;;;;;-3.05;67.05;103502.75;5093953;27;97881;-28
2024/01/11 03:14:12;;;;;;;1.48;1.13;;;;;;;-3.06;67.11;103502.66;5094243;27;98806;-27
2024/01/11 03:16:39;;;;;;;0.98;0.95;;;;;;;-3.06;66.95;103500.03;5094286;27;96477;-28
2024/01/11 03:19:05;;;;;;;1.77;1.67;;;;;;;-3.10;67.65;103499.00;5094340;27;96835;-29
2024/01/11 03:21:30;;;;;;;0.63;0.63;;;;;;;-3.13;67.67;103488.28;5094416;27;98159;-28
2024/01/11 03:23:56;;;;;;;0.93;0.90;;;;;;;-3.08;67.75;103499.94;5094528;27;99123;-27
2024/01/11 03:26:21;;;;;;;1.55;0.82;;;;;;;-3.11;67.62;103494.53;5094594;27;96501;-27
2024/01/11 03:28:46;;;;;;;0.75;0.75;;;;;;;-3.13;67.86;103488.28;5094145;27;96858;-29
2024/01/11 03:31:12;;;;;;;0.38;0.38;;;;;;;-3.12;67.90;103491.81;5093900;27;97359;-27
2024/01/11 03:33:37;;;;;;;0.85;0.85;;;;;;;-3.12;68.17;103483.88;5094166;27;97326;-28
2024/01/11 03:36:10;;;;;;;1.75;1.00;;;;;;;-3.10;67.78;103493.72;5094448;27;96590;-27
2024/01/11 03:38:36;;;;;;;1.48;1.38;;;;;;;-3.14;68.35;103480.28;5094206;27;96752;-28
2024/01/11 03:41:02;;;;;;;0.82;0.82;;;;;;;-3.10;68.22;103498.09;5075303;27;101483;-28
2024/01/11 03:43:27;;;;;;;0.00;0.00;;;;;;;-3.17;67.90;103481.06;5093776;27;99529;-28
2024/01/11 03:45:52;;;;;;;1.25;1.05;;;;;;;-3.15;68.35;103492.59;5093957;27;96809;-28
2024/01/11 03:48:18;;;;;;;1.45;1.35;;;;;;;-3.17;68.28;103496.06;5094344;27;96741;-27
2024/01/11 03:50:43;;;;;;;0.77;0.55;;;;;;;-3.17;68.70;103498.69;5094134;27;97256;-28
2024/01/11 03:53:08;;;;;;;0.75;0.57;;;;;;;-3.24;68.42;103489.63;5093690;27;97804;-27
2024/01/11 03:55:34;;;;;;;1.17;1.08;;;;;;;-3.20;68.71;103500.38;5093610;27;96530;-27
2024/01/11 03:57:59;;;;;;;2.05;1.85;;;;;;;-3.26;68.85;103502.81;5093967;27;96809;-28
2024/01/11 04:00:24;;;;;;;1.45;1.30;;;;;;;-3.25;68.80;103519.63;5093742;27;97652;-27
2024/01/11 04:02:50;;;;;;;0.65;0.65;;;;;;;-3.27;68.88;103524.84;5093319;27;97303;-27
2024/01/11 04:05:15;;;;;;;2.08;0.95;;;;;;;-3.27;69.06;103521.31;5093690;27;96554;-28
2024/01/11 04:07:41;;;;;;;0.00;0.00;;;;;;;-3.29;68.98;103513.31;5093760;27;96763;-28
2024/01/11 04:10:09;;;;;;;0.22;0.20;;;;;;;-3.25;69.05;103519.63;5093723;27;97273;-27
2024/01/11 04:12:36;;;;;;;0.60;0.60;;;;;;;-3.42;69.14;103490.72;5075325;27;100958;-27
2024/01/11 04:15:01;;;;;;;0.52;0.52;;;;;;;-3.35;69.18;103509.50;5109435;27;96882;-28
2024/01/11 04:17:26;;;;;;;0.95;0.90;;;;;;;-3.43;69.50;103515.41;5093749;27;96783;-28
2024/01/11 04:19:52;;;;;;;1.63;1.52;;;;;;;-3.41;69.42;103515.47;5092987;27;98240;-27
2024/01/11 04:22:17;;;;;;;1.10;1.10;;;;;;;-3.44;69.59;103526.84;5074832;27;101286;-28
2024/01/11 04:24:43;;;;;;;0.22;0.22;;;;;;;-3.53;69.71;103520.28;5092252;27;96481;-27
2024/01/11 04:27:08;;;;;;;0.20;0.20;;;;;;;-3.47;69.74;103523.19;5093358;27;96895;-28
2024/01/11 04:29:34;;;;;;;0.95;0.85;;;;;;;-3.51;70.06;103527.44;5093197;27;97423;-28
2024/01/11 04:31:59;;;;;;;0.93;0.93;;;;;;;-3.50;70.23;103513.38;5093592;27;97393;-27
2024/01/11 04:34:24;;;;;;;3.95;2.00;;;;;;;-3.50;69.99;103516.03;5093347;27;96700;-27
2024/01/11 04:36:50;;;;;;;1.23;0.80;;;;;;;-3.46;70.09;103533.81;5093913;27;96609;-28
2024/01/11 04:39:15;;;;;;;0.60;0.47;;;;;;;-3.46;69.99;103541.75;5093129;27;99819;-28
2024/01/11 04:41:41;;;;;;;0.65;0.65;;;;;;;-3.47;70.37;103539.97;5093010;27;99135;-28
2024/01/11 04:44:06;;;;;;;0.47;0.47;;;;;;;-3.51;70.14;103539.78;5093150;27;96488;-28
2024/01/11 04:46:31;;;;;;;1.25;1.15;;;;;;;-3.58;70.47;103535.09;5093227;27;96797;-28
2024/01/11 04:48:57;;;;;;;0.98;0.93;;;;;;;-3.51;70.07;103534.50;5092815;27;99144;-28
2024/01/11 04:51:22;;;;;;;1.13;1.02;;;;;;;-3.57;70.38;103537.81;5093222;27;97310;-29
2024/01/11 04:53:47;;;;;;;0.57;0.57;;;;;;;-3.51;70.27;103553.03;5093464;27;96527;-27
2024/01/11 04:56:16;;;;;;;6.22;1.80;;;;;;;-3.51;70.91;103555.69;5093174;27;96771;-27
2024/01/11 04:58:43;;;;;;;1.55;1.45;;;;;;;-3.51;70.98;103563.63;5108895;27;100801;-28
2024/01/11 05:01:18;;;;;;;0.82;0.60;;;;;;;-3.54;70.69;103556.47;5074197;27;101070;-28
2024/01/11 05:03:45;;;;;;;0.35;0.35;;;;;;;-3.59;71.09;103542.13;5092968;27;96593;-27
2024/01/11 05:06:22;;;;;;;0.55;0.55;;;;;;;-3.59;70.48;103549.19;5074533;27;96837;-27
2024/01/11 05:08:54;;;;;;;3.03;2.35;;;;;;;-3.61;71.30;103562.34;5092438;27;97766;-27
2024/01/11 05:11:26;;;;;;;0.85;0.85;;;;;;;-3.63;71.39;103551.69;5092521;27;99250;-27
2024/01/11 05:13:52;;;;;;;0.15;0.13;;;;;;;-3.68;71.28;103555.91;5092830;27;96540;-27
2024/01/11 05:16:24;;;;;;;0.85;0.77;;;;;;;-3.58;71.60;103573.06;5093087;27;96764;-28
2024/01/11 05:18:51;;;;;;;0.70;0.70;;;;;;;-3.57;71.09;103577.53;5074180;27;101417;-27
2024/01/11 05:21:17;;;;;;;0.88;0.85;;;;;;;-3.56;71.64;103571.38;5074115;27;100880;-27
2024/01/11 05:23:43;;;;;;;1.38;1.27;;;;;;;-3.59;71.56;103576.56;5092907;27;96456;-27
2024/01/11 05:26:09;;;;;;;1.25;1.02;;;;;;;-3.60;72.02;103576.50;5093087;27;96796;-27
2024/01/11 05:28:35;;;;;;;2.05;1.73;;;;;;;-3.60;71.64;103576.50;5092556;27;97978;-27
2024/01/11 05:31:00;;;;;;;0.70;0.70;;;;;;;-3.58;71.66;103557.19;5092359;27;99211;-29
2024/01/11 05:33:25;;;;;;;0.43;0.43;;;;;;;-3.60;71.76;103552.66;5092610;27;96465;-27
2024/01/11 05:35:53;;;;;;;0.57;0.57;;;;;;;-3.56;71.51;103567.84;5094358;27;96764;-27
2024/01/11 05:38:19;;;;;;;0.93;0.47;;;;;;;-3.58;71.88;103554.53;5077310;27;100830;-28
2024/01/11 05:40:44;;;;;;;2.58;0.85;;;;;;;-3.63;71.86;103548.13;5096147;27;97309;-27
2024/01/11 05:43:09;;;;;;;0.57;0.57;;;;;;;-3.66;71.84;103561.28;5096135;27;96661;-27
2024/01/11 05:45:35;;;;;;;2.60;1.65;;;;;;;-3.71;71.98;103553.13;5096065;27;96790;-27
2024/01/11 05:48:00;;;;;;;1.55;0.95;;;;;;;-3.66;71.82;103561.28;5095852;27;98501;-28
2024/01/11 05:50:26;;;;;;;3.40;1.08;;;;;;;-3.59;71.97;103575.69;5096383;27;97285;-29
2024/01/11 05:52:53;;;;;;;1.02;0.85;;;;;;;-3.69;72.56;103575.28;5095566;27;96610;-27
2024/01/11 05:55:19;;;;;;;1.65;1.45;;;;;;;-3.63;72.40;103577.28;5111755;27;96791;-27
2024/01/11 05:57:45;;;;;;;2.00;1.75;;;;;;;-3.69;72.28;103579.69;5095433;27;97884;-28
2024/01/11 06:00:11;;;;;;;3.03;1.73;;;;;;;-3.71;72.18;103581.38;5076963;27;100946;-27
2024/01/11 06:02:36;;;;;;;4.32;1.85;;;;;;;-3.74;72.93;103591.81;5095406;27;96751;-27
2024/01/11 06:05:01;;;;;;;0.35;0.35;;;;;;;-3.73;72.51;103598.94;5095984;27;96780;-28
2024/01/11 06:07:28;;;;;;;1.65;1.55;;;;;;;-3.76;72.73;103593.50;5095242;27;98831;-27
2024/01/11 06:09:53;;;;;;;0.38;0.38;;;;;;;-3.79;72.96;103577.47;5095404;27;99228;-27
2024/01/11 06:12:18;;;;;;;1.65;0.82;;;;;;;-3.83;73.23;103573.81;5095761;27;96406;-28
2024/01/11 06:14:44;;;;;;;0.40;0.40;;;;;;;-3.91;73.56;103559.34;5096144;27;96893;-27
2024/01/11 06:17:10;;;;;;;1.27;1.00;;;;;;;-3.87;73.52;103574.50;5095395;27;97930;-27
2024/01/11 06:19:37;;;;;;;1.42;1.33;;;;;;;-3.90;73.25;103577.94;5095344;27;97826;-29
2024/01/11 06:22:03;;;;;;;2.85;1.90;;;;;;;-3.92;73.50;103589.31;5094713;27;96546;-27
2024/01/11 06:24:28;;;;;;;5.10;2.17;;;;;;;-3.89;72.99;103600.00;5095578;27;96701;-27
2024/01/11 06:26:53;;;;;;;1.05;0.70;;;;;;;-3.94;73.02;103588.34;5095160;27;99276;-28
2024/01/11 06:29:19;;;;;;;1.05;0.98;;;;;;;-3.99;72.88;103574.91;5095160;27;97937;-27
2024/01/11 06:31:44;;;;;;;1.20;1.10;;;;;;;-4.05;73.33;103569.38;5095350;27;96624;-27
2024/01/11 06:34:09;;;;;;;0.93;0.93;;;;;;;-4.10;73.35;103570.88;5095503;27;96821;-27
2024/01/11 06:36:35;;;;;;;1.63;1.35;;;;;;;-4.09;73.79;103573.59;5095098;27;97689;-29
2024/01/11 06:39:01;;;;;;;2.60;1.38;;;;;;;-4.12;74.07;103585.81;5095179;27;99638;-28
2024/01/11 06:41:26;;;;;;;1.95;1.67;;;;;;;-4.09;73.72;103599.16;5095334;27;96461;-28
2024/01/11 06:43:51;;;;;;;2.85;1.50;;;;;;;-4.03;73.22;103610.00;5095186;27;96782;-28
2024/01/11 06:46:21;;;;;;;1.25;1.15;;;;;;;-4.09;73.57;103609.75;5094349;27;98146;-28
2024/01/11 06:48:47;;;;;;;0.57;0.43;;;;;;;-4.11;73.10;103600.84;5075433;27;101430;-28
2024/01/11 06:51:16;;;;;;;0.70;0.70;;;;;;;-4.11;73.36;103611.44;5075978;27;96552;-27
2024/01/11 06:53:42;;;;;;;0.75;0.75;;;;;;;-4.07;73.73;103616.03;5111094;27;96724;-27
2024/01/11 06:56:15;;;;;;;0.40;0.35;;;;;;;-4.01;73.32;103624.22;5094701;27;99228;-29
2024/01/11 06:58:40;;;;;;;1.58;1.48;;;;;;;-3.99;73.12;103627.84;5094666;27;98280;-28
2024/01/11 07:01:05;;;;;;;0.40;0.40;;;;;;;-3.98;73.71;103641.97;5094711;27;96545;-29
2024/01/11 07:03:31;;;;;;;1.65;1.55;;;;;;;-3.96;73.19;103646.50;5094881;27;96823;-27
2024/01/11 07:05:56;;;;;;;2.60;0.90;;;;;;;-3.99;73.01;103654.31;5095003;27;97384;-27
2024/01/11 07:08:22;;;;;;;1.60;1.45;;;;;;;-3.98;74.12;103663.16;5075895;27;101442;-28
2024/01/11 07:10:47;;;;;;;2.40;1.63;;;;;;;-4.05;73.22;103654.06;5094219;27;96534;-28
2024/01/11 07:13:16;;;;;;;0.45;0.45;;;;;;;-4.09;74.37;103647.72;5094856;27;96838;-28
2024/01/11 07:15:41;;;;;;;2.00;1.30;;;;;;;-4.11;74.29;103648.47;5094244;27;99766;-29
2024/01/11 07:18:07;;;;;;;2.03;1.83;;;;;;;-4.16;73.36;103666.81;5094547;27;98726;-27
2024/01/11 07:20:32;;;;;;;1.80;1.65;;;;;;;-4.21;73.87;103644.53;5094598;27;96660;-27
2024/01/11 07:22:57;;;;;;;4.30;1.98;;;;;;;-4.25;74.04;103644.31;5094690;27;96777;-28
2024/01/11 07:25:22;;;;;;;1.00;0.90;;;;;;;-4.19;74.76;103650.78;5094454;27;98083;-28
2024/01/11 07:27:48;;;;;;;2.10;1.65;;;;;;;-4.16;75.01;103655.31;5094309;27;98855;-28
2024/01/11 07:30:13;;;;;;;1.83;1.42;;;;;;;-4.12;74.08;103638.75;5094483;27;96649;-28
2024/01/11 07:32:39;;;;;;;0.20;0.20;;;;;;;-4.12;75.60;103647.59;5075812;27;96730;-27
2024/01/11 07:35:06;;;;;;;0.43;0.43;;;;;;;-4.03;75.34;103654.09;5093294;27;99147;-28
2024/01/11 07:37:32;;;;;;;0.95;0.75;;;;;;;-4.10;74.35;103634.41;5075357;27;101136;-28
2024/01/11 07:39:57;;;;;;;1.33;1.23;;;;;;;-4.10;74.97;103637.03;5094411;27;96659;-27
2024/01/11 07:42:22;;;;;;;4.40;1.15;;;;;;;-4.06;74.75;103652.22;5094396;27;96814;-28
2024/01/11 07:44:48;;;;;;;0.65;0.65;;;;;;;-4.01;74.89;103640.09;5094033;27;97972;-29
2024/01/11 07:47:13;;;;;;;1.30;1.10;;;;;;;-3.98;74.36;103637.59;5093791;27;99446;-27
2024/01/11 07:49:39;;;;;;;0.90;0.57;;;;;;;-4.00;74.55;103630.41;5093887;27;96684;-28
2024/01/11 07:52:05;;;;;;;2.20;2.03;;;;;;;-3.98;74.78;103628.72;5093977;27;96839;-28
2024/01/11 07:54:31;;;;;;;3.88;1.27;;;;;;;-3.93;74.52;103635.16;5093970;27;97539;-28
2024/01/11 07:56:57;;;;;;;0.85;0.63;;;;;;;-3.91;74.79;103628.16;5075148;27;101023;-28
2024/01/11 07:59:22;;;;;;;1.50;1.20;;;;;;;-3.94;74.65;103618.34;5093222;27;96569;-28
2024/01/11 08:01:48;;;;;;;0.57;0.57;;;;;;;-3.86;74.19;103616.94;5093817;27;96841;-28
2024/01/11 08:04:14;;;;;;;1.30;1.05;;;;;;;-3.85;74.62;103620.50;5074911;27;101019;-28
2024/01/11 08:06:39;;;;;;;0.68;0.52;;;;;;;-3.78;74.45;103626.97;5093938;27;97197;-28
2024/01/11 08:09:05;;;;;;;4.60;2.78;;;;;;;-3.82;74.04;103614.44;5093867;27;96550;-27
2024/01/11 08:11:31;;;;;;;0.85;0.80;;;;;;;-3.80;74.27;103618.06;5075121;27;96768;-27
2024/01/11 08:13:56;;;;;;;0.70;0.57;;;;;;;-3.81;74.15;103619.78;5093561;27;97921;-30
2024/01/11 08:16:22;;;;;;;0.50;0.50;;;;;;;-3.74;74.35;103635.09;5094078;27;97996;-27
2024/01/11 08:18:48;;;;;;;1.52;1.20;;;;;;;-3.82;74.17;103615.31;5093749;27;96594;-27
2024/01/11 08:21:14;;;;;;;2.15;1.95;;;;;;;-3.74;74.64;103632.47;5093652;27;96752;-27
2024/01/11 08:23:48;;;;;;;1.08;1.00;;;;;;;-3.76;73.94;103635.88;5092881;27;99088;-27
2024/01/11 08:26:14;;;;;;;2.17;1.15;;;;;;;-3.75;74.09;103640.31;5074847;27;100734;-28
2024/01/11 08:28:40;;;;;;;2.05;1.10;;;;;;;-3.71;73.88;103648.47;5074739;27;96823;-27
2024/01/11 08:31:06;;;;;;;1.17;1.08;;;;;;;-3.74;73.63;103639.47;5093620;27;96755;-27
2024/01/11 08:33:31;;;;;;;1.40;1.25;;;;;;;-3.80;74.53;103626.88;5093061;27;98035;-27
2024/01/11 08:35:57;;;;;;;1.80;1.70;;;;;;;-3.70;73.96;103644.06;5093386;27;97452;-27
2024/01/11 08:38:24;;;;;;;0.17;0.17;;;;;;;-3.68;73.68;103648.59;5093475;27;96700;-27
2024/01/11 08:40:49;;;;;;;1.45;1.35;;;;;;;-3.73;73.76;103636.91;5093512;27;96687;-27
2024/01/11 08:43:15;;;;;;;1.85;1.52;;;;;;;-3.65;73.70;103640.81;5093358;27;97320;-27
2024/01/11 08:45:40;;;;;;;2.42;1.70;;;;;;;-3.70;73.93;103630.81;5093200;27;97133;-28
2024/01/11 08:48:06;;;;;;;3.22;2.30;;;;;;;-3.67;73.78;103638.91;5092560;27;96810;-27
2024/01/11 08:50:32;;;;;;;2.05;1.30;;;;;;;-3.59;73.68;103649.84;5093597;27;96778;-27
2024/01/11 08:52:57;;;;;;;1.55;1.45;;;;;;;-3.69;73.42;103640.59;5074266;27;100994;-27
2024/01/11 08:55:23;;;;;;;4.97;1.65;;;;;;;-3.69;73.78;103648.56;5093179;27;97333;-31
2024/01/11 08:57:48;;;;;;;2.90;2.00;;;;;;;-3.64;74.30;103654.94;5093440;27;96413;-27
2024/01/11 09:00:17;;;;;;;2.97;1.85;;;;;;;-3.47;73.93;103664.50;5093217;27;97042;-29
2024/01/11 09:02:43;;;;;;;1.05;1.05;;;;;;;-3.48;73.63;103659.13;5056828;27;101406;-27
2024/01/11 09:05:09;;;;;;;1.35;1.15;;;;;;;-3.42;73.18;103667.34;5093035;27;99592;-27
2024/01/11 09:07:34;;;;;;;0.77;0.70;;;;;;;-3.34;73.37;103671.19;5093052;27;96593;-27
2024/01/11 09:09:59;;;;;;;3.60;2.90;;;;;;;-3.39;72.74;103655.97;5093318;27;96903;-28
2024/01/11 09:12:25;;;;;;;2.70;1.35;;;;;;;-3.40;73.29;103662.13;5096098;27;97810;-27
2024/01/11 09:14:51;;;;;;;1.73;1.63;;;;;;;-3.34;73.25;103668.53;5096936;27;96564;-27
2024/01/11 09:17:17;;;;;;;1.30;1.20;;;;;;;-3.31;72.77;103683.66;5095007;27;96730;-28
2024/01/11 09:19:42;;;;;;;1.70;1.58;;;;;;;-3.32;73.13;103680.13;5095737;27;96935;-27
2024/01/11 09:22:10;;;;;;;2.72;2.53;;;;;;;-3.33;72.49;103678.31;5095166;27;98640;-27
2024/01/11 09:24:36;;;;;;;2.92;2.53;;;;;;;-3.27;73.60;103701.50;5095910;27;97215;-29
2024/01/11 09:27:01;;;;;;;5.78;3.15;;;;;;;-3.31;73.04;103687.25;5077733;27;96645;-28
2024/01/11 09:29:27;;;;;;;2.13;1.95;;;;;;;-3.23;72.49;103696.41;5096366;27;96781;-27
2024/01/11 09:31:53;;;;;;;4.35;2.25;;;;;;;-3.11;72.76;103705.72;5076647;27;100951;-27
2024/01/11 09:34:18;;;;;;;5.07;1.95;;;;;;;-3.07;72.98;103711.22;5095303;27;97848;-28
2024/01/11 09:36:45;;;;;;;2.25;2.05;;;;;;;-3.02;72.38;103722.00;5094638;27;96890;-27
2024/01/11 09:39:13;;;;;;;2.35;2.15;;;;;;;-3.01;72.12;103722.03;5077225;27;97255;-28
2024/01/11 09:41:43;;;;;;;1.25;1.15;;;;;;;-2.91;72.50;103714.47;5077232;27;99173;-27
2024/01/11 09:44:09;;;;;;;1.20;1.10;;;;;;;-2.81;71.95;103722.88;5076782;27;101708;-27
2024/01/11 09:46:35;;;;;;;2.53;1.45;;;;;;;-2.71;71.75;103720.59;5076936;27;96610;-29
2024/01/11 09:49:03;;;;;;;1.10;0.98;;;;;;;-2.59;72.07;103735.25;5096100;27;96757;-28
2024/01/11 09:51:29;;;;;;;1.90;1.45;;;;;;;-2.52;71.97;103725.78;5076923;27;101128;-27
2024/01/11 09:53:58;;;;;;;2.63;1.17;;;;;;;-2.41;72.01;103748.34;5076298;27;100955;-28
2024/01/11 09:56:27;;;;;;;2.08;1.65;;;;;;;-2.35;71.86;103734.38;5076629;27;96723;-27
2024/01/11 09:58:52;;;;;;;1.40;1.25;;;;;;;-2.26;71.85;103739.16;5095549;27;96777;-28
2024/01/11 10:01:18;;;;;;;1.50;1.40;;;;;;;-2.15;71.64;103749.31;5093520;27;98890;-27
2024/01/11 10:03:46;;;;;;;4.07;1.75;;;;;;;-2.02;72.04;103747.16;5094796;27;99590;-28
2024/01/11 10:06:12;;;;;;;1.85;1.75;;;;;;;-1.93;72.10;103744.84;5074265;27;97018;-28
2024/01/11 10:08:37;;;;;;;2.97;1.83;;;;;;;-1.82;73.15;103737.25;5094824;27;97382;-27
2024/01/11 10:11:03;;;;;;;0.57;0.57;;;;;;;-1.68;73.09;103743.06;5094539;27;97852;-32
2024/01/11 10:13:30;;;;;;;1.58;1.17;;;;;;;-1.59;73.55;103746.94;5091592;27;97772;-27
2024/01/11 10:16:08;;;;;;;4.07;2.13;;;;;;;-1.57;73.32;103747.91;5061147;27;97360;-33
2024/01/11 10:18:33;;;;;;;4.32;2.63;;;;;;;-1.55;74.04;103743.56;5074411;27;97064;-27
2024/01/11 10:20:59;;;;;;;1.48;1.38;;;;;;;-1.51;75.04;103737.47;5056036;27;99700;-27
2024/01/11 10:23:24;;;;;;;1.65;1.55;;;;;;;-1.48;75.52;103735.78;5073537;27;97938;-27
2024/01/11 10:25:49;;;;;;;1.92;1.08;;;;;;;-1.42;75.17;103720.97;5090716;27;96688;-27
2024/01/11 10:28:15;;;;;;;2.58;2.22;;;;;;;-1.34;75.83;103732.75;5094738;27;96853;-27
2024/01/11 10:30:41;;;;;;;0.52;0.52;;;;;;;-1.30;76.19;103725.78;5092823;27;97924;-27
2024/01/11 10:33:07;;;;;;;2.08;1.88;;;;;;;-1.23;75.82;103730.47;5075186;27;100844;-27
2024/01/11 10:35:35;;;;;;;1.73;1.48;;;;;;;-1.13;77.91;103735.22;5066743;27;96638;-27
2024/01/11 10:38:05;;;;;;;2.28;2.05;;;;;;;-1.14;76.40;103721.91;5076427;27;96879;-27
2024/01/11 10:40:31;;;;;;;3.55;1.73;;;;;;;-1.01;78.17;103736.50;5075354;27;100903;-28
2024/01/11 10:42:59;;;;;;;0.50;0.50;;;;;;;-1.03;78.08;103727.56;5094052;27;97974;-27
2024/01/11 10:45:25;;;;;;;1.45;1.20;;;;;;;-0.95;78.05;103728.75;5075286;27;96734;-29
2024/01/11 10:48:04;;;;;;;3.60;2.70;;;;;;;-0.82;77.08;103727.38;5094395;27;97357;-29
2024/01/11 10:50:34;;;;;;;2.03;1.73;;;;;;;-0.72;76.65;103732.13;5074814;27;101164;-28
2024/01/11 10:53:12;;;;;;;1.05;0.93;;;;;;;-0.67;77.62;103733.16;5074012;27;100013;-29
2024/01/11 10:55:39;;;;;;;0.65;0.65;;;;;;;-0.67;77.38;103725.19;5075636;27;96758;-28
2024/01/11 10:58:06;;;;;;;1.75;1.58;;;;;;;-0.72;76.97;103742.78;5074757;27;96867;-29
2024/01/11 11:00:34;;;;;;;1.95;1.60;;;;;;;-0.81;78.02;103742.47;5093508;27;97464;-28
2024/01/11 11:03:00;;;;;;;0.55;0.52;;;;;;;-0.87;80.02;103736.09;5074947;27;100863;-28
2024/01/11 11:05:28;;;;;;;5.80;3.65;;;;;;;-0.81;78.90;103751.38;5075964;27;96668;-27
2024/01/11 11:07:55;;;;;;;2.15;1.63;;;;;;;-0.79;79.27;103759.38;5075110;27;96813;-27
2024/01/11 11:10:21;;;;;;;1.23;1.13;;;;;;;-0.60;80.48;103759.13;5096230;27;100905;-28
2024/01/11 11:12:48;;;;;;;2.58;1.15;;;;;;;-0.52;79.98;103759.41;5075061;27;101368;-27
2024/01/11 11:15:14;;;;;;;1.50;1.13;;;;;;;-0.45;79.83;103761.38;5074261;27;97234;-28
2024/01/11 11:17:42;;;;;;;0.28;0.28;;;;;;;-0.40;78.90;103772.19;5094048;27;96781;-31
2024/01/11 11:20:08;;;;;;;0.95;0.90;;;;;;;-0.37;80.25;103772.28;5093731;27;97552;-27